sensor_id;sensor_type;location;lat;lon;timestamp;P1;durP1;ratioP1;P2;durP2;ratioP2
16153;SDS011;8182;55.648;13.208;2024-02-26T00:02:15;12.70;;;10.70;;
16153;SDS011;8182;55.648;13.208;2024-02-26T00:04:42;14.47;;;11.13;;
16153;SDS011;8182;55.648;13.208;2024-02-26T00:07:14;13.63;;;10.67;;
16153;SDS011;8182;55.648;13.208;2024-02-26T00:09:41;16.00;;;11.60;;
16153;SDS011;8182;55.648;13.208;2024-02-26T00:12:11;13.23;;;10.73;;
16153;SDS011;8182;55.648;13.208;2024-02-26T00:14:40;14.43;;;10.80;;
16153;SDS011;8182;55.648;13.208;2024-02-26T00:17:07;12.90;;;11.03;;
16153;SDS011;8182;55.648;13.208;2024-02-26T00:19:35;14.00;;;10.87;;
16153;SDS011;8182;55.648;13.208;2024-02-26T00:22:01;12.67;;;10.13;;
16153;SDS011;8182;55.648;13.208;2024-02-26T00:24:28;14.17;;;10.87;;
16153;SDS011;8182;55.648;13.208;2024-02-26T00:26:55;13.93;;;11.33;;
16153;SDS011;8182;55.648;13.208;2024-02-26T00:29:22;13.70;;;11.10;;
16153;SDS011;8182;55.648;13.208;2024-02-26T00:31:51;15.10;;;11.60;;
16153;SDS011;8182;55.648;13.208;2024-02-26T00:34:18;14.80;;;11.60;;
16153;SDS011;8182;55.648;13.208;2024-02-26T00:36:44;15.23;;;11.17;;
16153;SDS011;8182;55.648;13.208;2024-02-26T00:39:11;14.33;;;11.20;;
16153;SDS011;8182;55.648;13.208;2024-02-26T00:41:39;14.73;;;10.83;;
16153;SDS011;8182;55.648;13.208;2024-02-26T00:44:06;14.50;;;10.90;;
16153;SDS011;8182;55.648;13.208;2024-02-26T00:46:33;16.47;;;11.27;;
16153;SDS011;8182;55.648;13.208;2024-02-26T00:49:02;14.50;;;11.03;;
16153;SDS011;8182;55.648;13.208;2024-02-26T00:51:29;15.40;;;11.33;;
16153;SDS011;8182;55.648;13.208;2024-02-26T00:53:55;13.57;;;11.27;;
16153;SDS011;8182;55.648;13.208;2024-02-26T00:56:25;16.00;;;12.03;;
16153;SDS011;8182;55.648;13.208;2024-02-26T00:58:58;14.03;;;11.03;;
16153;SDS011;8182;55.648;13.208;2024-02-26T01:01:24;14.97;;;11.20;;
16153;SDS011;8182;55.648;13.208;2024-02-26T01:03:51;15.60;;;11.13;;
16153;SDS011;8182;55.648;13.208;2024-02-26T01:06:20;12.93;;;11.00;;
16153;SDS011;8182;55.648;13.208;2024-02-26T01:08:51;17.60;;;12.10;;
16153;SDS011;8182;55.648;13.208;2024-02-26T01:11:18;15.50;;;11.80;;
16153;SDS011;8182;55.648;13.208;2024-02-26T01:13:45;14.63;;;12.17;;
16153;SDS011;8182;55.648;13.208;2024-02-26T01:16:12;16.57;;;12.03;;
16153;SDS011;8182;55.648;13.208;2024-02-26T01:18:39;15.33;;;11.53;;
16153;SDS011;8182;55.648;13.208;2024-02-26T01:21:06;15.10;;;11.60;;
16153;SDS011;8182;55.648;13.208;2024-02-26T01:23:35;14.63;;;11.50;;
16153;SDS011;8182;55.648;13.208;2024-02-26T01:26:02;16.40;;;11.57;;
16153;SDS011;8182;55.648;13.208;2024-02-26T01:28:32;14.20;;;11.90;;
16153;SDS011;8182;55.648;13.208;2024-02-26T01:31:02;14.40;;;11.20;;
16153;SDS011;8182;55.648;13.208;2024-02-26T01:33:30;14.07;;;10.70;;
16153;SDS011;8182;55.648;13.208;2024-02-26T01:35:57;14.13;;;11.13;;
16153;SDS011;8182;55.648;13.208;2024-02-26T01:38:25;14.57;;;10.43;;
16153;SDS011;8182;55.648;13.208;2024-02-26T01:40:54;12.63;;;10.07;;
16153;SDS011;8182;55.648;13.208;2024-02-26T01:43:21;11.50;;;9.27;;
16153;SDS011;8182;55.648;13.208;2024-02-26T01:45:48;13.03;;;10.17;;
16153;SDS011;8182;55.648;13.208;2024-02-26T01:48:14;13.07;;;10.67;;
16153;SDS011;8182;55.648;13.208;2024-02-26T01:50:42;12.90;;;9.27;;
16153;SDS011;8182;55.648;13.208;2024-02-26T01:53:09;11.53;;;9.53;;
16153;SDS011;8182;55.648;13.208;2024-02-26T01:55:36;14.60;;;10.77;;
16153;SDS011;8182;55.648;13.208;2024-02-26T01:58:05;13.30;;;10.87;;
16153;SDS011;8182;55.648;13.208;2024-02-26T02:00:32;13.97;;;9.70;;
16153;SDS011;8182;55.648;13.208;2024-02-26T02:02:59;13.37;;;10.13;;
16153;SDS011;8182;55.648;13.208;2024-02-26T02:05:26;11.33;;;9.37;;
16153;SDS011;8182;55.648;13.208;2024-02-26T02:07:53;12.30;;;10.13;;
16153;SDS011;8182;55.648;13.208;2024-02-26T02:10:22;14.33;;;10.23;;
16153;SDS011;8182;55.648;13.208;2024-02-26T02:12:53;12.00;;;10.33;;
16153;SDS011;8182;55.648;13.208;2024-02-26T02:15:21;13.27;;;10.47;;
16153;SDS011;8182;55.648;13.208;2024-02-26T02:17:48;13.60;;;10.80;;
16153;SDS011;8182;55.648;13.208;2024-02-26T02:20:15;11.53;;;9.73;;
16153;SDS011;8182;55.648;13.208;2024-02-26T02:22:44;13.00;;;10.50;;
16153;SDS011;8182;55.648;13.208;2024-02-26T02:25:14;13.03;;;10.07;;
16153;SDS011;8182;55.648;13.208;2024-02-26T02:27:41;11.97;;;9.77;;
16153;SDS011;8182;55.648;13.208;2024-02-26T02:30:09;15.50;;;10.50;;
16153;SDS011;8182;55.648;13.208;2024-02-26T02:32:41;12.87;;;10.53;;
16153;SDS011;8182;55.648;13.208;2024-02-26T02:35:11;12.80;;;9.90;;
16153;SDS011;8182;55.648;13.208;2024-02-26T02:37:44;11.63;;;9.97;;
16153;SDS011;8182;55.648;13.208;2024-02-26T02:40:11;13.50;;;10.80;;
16153;SDS011;8182;55.648;13.208;2024-02-26T02:42:41;13.33;;;10.70;;
16153;SDS011;8182;55.648;13.208;2024-02-26T02:45:11;13.13;;;10.47;;
16153;SDS011;8182;55.648;13.208;2024-02-26T02:47:41;12.50;;;10.60;;
16153;SDS011;8182;55.648;13.208;2024-02-26T02:50:11;13.50;;;10.77;;
16153;SDS011;8182;55.648;13.208;2024-02-26T02:52:41;12.63;;;10.40;;
16153;SDS011;8182;55.648;13.208;2024-02-26T02:55:13;12.60;;;10.57;;
16153;SDS011;8182;55.648;13.208;2024-02-26T02:57:40;13.40;;;10.17;;
16153;SDS011;8182;55.648;13.208;2024-02-26T03:00:08;13.00;;;11.13;;
16153;SDS011;8182;55.648;13.208;2024-02-26T03:02:35;13.60;;;11.30;;
16153;SDS011;8182;55.648;13.208;2024-02-26T03:05:02;14.30;;;11.47;;
16153;SDS011;8182;55.648;13.208;2024-02-26T03:07:30;15.73;;;11.10;;
16153;SDS011;8182;55.648;13.208;2024-02-26T03:09:58;13.23;;;11.17;;
16153;SDS011;8182;55.648;13.208;2024-02-26T03:12:25;12.63;;;10.70;;
16153;SDS011;8182;55.648;13.208;2024-02-26T03:14:53;16.57;;;11.80;;
16153;SDS011;8182;55.648;13.208;2024-02-26T03:17:19;14.33;;;11.87;;
16153;SDS011;8182;55.648;13.208;2024-02-26T03:19:49;13.43;;;10.77;;
16153;SDS011;8182;55.648;13.208;2024-02-26T03:22:19;14.03;;;10.87;;
16153;SDS011;8182;55.648;13.208;2024-02-26T03:24:46;14.50;;;11.40;;
16153;SDS011;8182;55.648;13.208;2024-02-26T03:27:14;15.43;;;11.83;;
16153;SDS011;8182;55.648;13.208;2024-02-26T03:29:41;12.93;;;10.53;;
16153;SDS011;8182;55.648;13.208;2024-02-26T03:32:08;14.50;;;11.33;;
16153;SDS011;8182;55.648;13.208;2024-02-26T03:34:35;12.33;;;10.60;;
16153;SDS011;8182;55.648;13.208;2024-02-26T03:37:04;14.70;;;10.80;;
16153;SDS011;8182;55.648;13.208;2024-02-26T03:39:36;13.20;;;10.87;;
16153;SDS011;8182;55.648;13.208;2024-02-26T03:42:03;13.03;;;10.97;;
16153;SDS011;8182;55.648;13.208;2024-02-26T03:44:31;14.63;;;11.07;;
16153;SDS011;8182;55.648;13.208;2024-02-26T03:46:58;13.27;;;10.77;;
16153;SDS011;8182;55.648;13.208;2024-02-26T03:49:25;13.90;;;11.17;;
16153;SDS011;8182;55.648;13.208;2024-02-26T03:51:52;13.07;;;11.10;;
16153;SDS011;8182;55.648;13.208;2024-02-26T03:54:19;14.20;;;11.03;;
16153;SDS011;8182;55.648;13.208;2024-02-26T03:56:46;12.63;;;10.77;;
16153;SDS011;8182;55.648;13.208;2024-02-26T03:59:12;12.97;;;10.87;;
16153;SDS011;8182;55.648;13.208;2024-02-26T04:01:44;13.90;;;10.90;;
16153;SDS011;8182;55.648;13.208;2024-02-26T04:04:14;12.20;;;10.33;;
16153;SDS011;8182;55.648;13.208;2024-02-26T04:06:43;13.60;;;10.83;;
16153;SDS011;8182;55.648;13.208;2024-02-26T04:09:11;12.67;;;10.60;;
16153;SDS011;8182;55.648;13.208;2024-02-26T04:11:38;14.03;;;10.87;;
16153;SDS011;8182;55.648;13.208;2024-02-26T04:14:05;12.87;;;11.00;;
16153;SDS011;8182;55.648;13.208;2024-02-26T04:16:33;15.27;;;11.43;;
16153;SDS011;8182;55.648;13.208;2024-02-26T04:19:02;14.90;;;11.17;;
16153;SDS011;8182;55.648;13.208;2024-02-26T04:21:28;16.63;;;13.00;;
16153;SDS011;8182;55.648;13.208;2024-02-26T04:23:55;15.40;;;12.40;;
16153;SDS011;8182;55.648;13.208;2024-02-26T04:26:25;17.77;;;12.87;;
16153;SDS011;8182;55.648;13.208;2024-02-26T04:28:52;14.70;;;11.90;;
16153;SDS011;8182;55.648;13.208;2024-02-26T04:31:19;14.67;;;12.03;;
16153;SDS011;8182;55.648;13.208;2024-02-26T04:33:46;16.93;;;13.07;;
16153;SDS011;8182;55.648;13.208;2024-02-26T04:36:14;19.20;;;13.73;;
16153;SDS011;8182;55.648;13.208;2024-02-26T04:38:42;19.20;;;13.33;;
16153;SDS011;8182;55.648;13.208;2024-02-26T04:41:09;17.70;;;13.20;;
16153;SDS011;8182;55.648;13.208;2024-02-26T04:43:36;18.33;;;14.20;;
16153;SDS011;8182;55.648;13.208;2024-02-26T04:46:06;19.10;;;14.80;;
16153;SDS011;8182;55.648;13.208;2024-02-26T04:48:33;20.97;;;15.93;;
16153;SDS011;8182;55.648;13.208;2024-02-26T04:51:02;20.40;;;15.23;;
16153;SDS011;8182;55.648;13.208;2024-02-26T04:53:35;22.30;;;15.40;;
16153;SDS011;8182;55.648;13.208;2024-02-26T04:56:02;22.87;;;16.70;;
16153;SDS011;8182;55.648;13.208;2024-02-26T04:58:29;22.40;;;16.20;;
16153;SDS011;8182;55.648;13.208;2024-02-26T05:00:56;20.30;;;15.60;;
16153;SDS011;8182;55.648;13.208;2024-02-26T05:03:23;21.90;;;16.37;;
16153;SDS011;8182;55.648;13.208;2024-02-26T05:05:50;23.10;;;16.60;;
16153;SDS011;8182;55.648;13.208;2024-02-26T05:08:22;21.40;;;16.37;;
16153;SDS011;8182;55.648;13.208;2024-02-26T05:10:50;22.43;;;16.77;;
16153;SDS011;8182;55.648;13.208;2024-02-26T05:13:19;21.47;;;16.03;;
16153;SDS011;8182;55.648;13.208;2024-02-26T05:15:46;21.00;;;15.80;;
16153;SDS011;8182;55.648;13.208;2024-02-26T05:18:17;22.27;;;17.20;;
16153;SDS011;8182;55.648;13.208;2024-02-26T05:20:46;24.10;;;17.87;;
16153;SDS011;8182;55.648;13.208;2024-02-26T05:23:13;21.93;;;17.07;;
16153;SDS011;8182;55.648;13.208;2024-02-26T05:25:44;22.27;;;17.20;;
16153;SDS011;8182;55.648;13.208;2024-02-26T05:28:14;22.57;;;16.63;;
16153;SDS011;8182;55.648;13.208;2024-02-26T05:30:41;23.50;;;16.57;;
16153;SDS011;8182;55.648;13.208;2024-02-26T05:33:10;23.27;;;16.73;;
16153;SDS011;8182;55.648;13.208;2024-02-26T05:35:38;22.13;;;16.37;;
16153;SDS011;8182;55.648;13.208;2024-02-26T05:38:06;22.93;;;16.17;;
16153;SDS011;8182;55.648;13.208;2024-02-26T05:40:33;21.37;;;16.30;;
16153;SDS011;8182;55.648;13.208;2024-02-26T05:43:00;22.50;;;16.30;;
16153;SDS011;8182;55.648;13.208;2024-02-26T05:45:30;21.20;;;16.13;;
16153;SDS011;8182;55.648;13.208;2024-02-26T05:47:58;22.27;;;15.33;;
16153;SDS011;8182;55.648;13.208;2024-02-26T05:50:25;20.43;;;15.33;;
16153;SDS011;8182;55.648;13.208;2024-02-26T05:52:52;19.07;;;14.77;;
16153;SDS011;8182;55.648;13.208;2024-02-26T05:55:18;19.87;;;15.20;;
16153;SDS011;8182;55.648;13.208;2024-02-26T05:57:45;21.23;;;15.17;;
16153;SDS011;8182;55.648;13.208;2024-02-26T06:00:14;20.00;;;14.90;;
16153;SDS011;8182;55.648;13.208;2024-02-26T06:02:43;17.87;;;14.40;;
16153;SDS011;8182;55.648;13.208;2024-02-26T06:05:10;19.87;;;14.67;;
16153;SDS011;8182;55.648;13.208;2024-02-26T06:07:37;20.40;;;15.37;;
16153;SDS011;8182;55.648;13.208;2024-02-26T06:10:04;19.13;;;14.37;;
16153;SDS011;8182;55.648;13.208;2024-02-26T06:12:31;18.90;;;14.43;;
16153;SDS011;8182;55.648;13.208;2024-02-26T06:15:00;19.80;;;14.30;;
16153;SDS011;8182;55.648;13.208;2024-02-26T06:17:27;20.93;;;15.40;;
16153;SDS011;8182;55.648;13.208;2024-02-26T06:19:56;19.53;;;14.87;;
16153;SDS011;8182;55.648;13.208;2024-02-26T06:22:24;18.00;;;14.20;;
16153;SDS011;8182;55.648;13.208;2024-02-26T06:24:54;20.77;;;14.70;;
16153;SDS011;8182;55.648;13.208;2024-02-26T06:27:23;19.57;;;15.10;;
16153;SDS011;8182;55.648;13.208;2024-02-26T06:29:50;19.17;;;14.80;;
16153;SDS011;8182;55.648;13.208;2024-02-26T06:32:17;19.83;;;15.53;;
16153;SDS011;8182;55.648;13.208;2024-02-26T06:34:44;20.93;;;15.10;;
16153;SDS011;8182;55.648;13.208;2024-02-26T06:37:15;19.47;;;14.67;;
16153;SDS011;8182;55.648;13.208;2024-02-26T06:39:42;18.90;;;15.00;;
16153;SDS011;8182;55.648;13.208;2024-02-26T06:42:11;21.17;;;16.37;;
16153;SDS011;8182;55.648;13.208;2024-02-26T06:44:38;21.97;;;16.43;;
16153;SDS011;8182;55.648;13.208;2024-02-26T06:47:05;21.50;;;16.33;;
16153;SDS011;8182;55.648;13.208;2024-02-26T06:49:32;24.13;;;17.40;;
16153;SDS011;8182;55.648;13.208;2024-02-26T06:51:59;22.40;;;16.73;;
16153;SDS011;8182;55.648;13.208;2024-02-26T06:54:27;24.30;;;17.70;;
16153;SDS011;8182;55.648;13.208;2024-02-26T06:56:54;25.63;;;17.57;;
16153;SDS011;8182;55.648;13.208;2024-02-26T06:59:21;23.80;;;17.53;;
16153;SDS011;8182;55.648;13.208;2024-02-26T07:01:48;23.27;;;17.47;;
16153;SDS011;8182;55.648;13.208;2024-02-26T07:04:15;27.67;;;18.60;;
16153;SDS011;8182;55.648;13.208;2024-02-26T07:06:45;24.23;;;18.87;;
16153;SDS011;8182;55.648;13.208;2024-02-26T07:09:15;24.97;;;18.30;;
16153;SDS011;8182;55.648;13.208;2024-02-26T07:11:45;23.07;;;17.67;;
16153;SDS011;8182;55.648;13.208;2024-02-26T07:14:15;24.73;;;18.53;;
16153;SDS011;8182;55.648;13.208;2024-02-26T07:16:41;25.70;;;18.53;;
16153;SDS011;8182;55.648;13.208;2024-02-26T07:19:11;27.23;;;20.00;;
16153;SDS011;8182;55.648;13.208;2024-02-26T07:21:41;23.43;;;18.20;;
16153;SDS011;8182;55.648;13.208;2024-02-26T07:24:11;25.30;;;19.30;;
16153;SDS011;8182;55.648;13.208;2024-02-26T07:26:38;26.23;;;18.80;;
16153;SDS011;8182;55.648;13.208;2024-02-26T07:29:09;25.77;;;18.50;;
16153;SDS011;8182;55.648;13.208;2024-02-26T07:31:36;26.10;;;18.63;;
16153;SDS011;8182;55.648;13.208;2024-02-26T07:34:03;27.03;;;19.30;;
16153;SDS011;8182;55.648;13.208;2024-02-26T07:36:30;26.13;;;19.17;;
16153;SDS011;8182;55.648;13.208;2024-02-26T07:38:57;27.10;;;20.10;;
16153;SDS011;8182;55.648;13.208;2024-02-26T07:41:25;27.77;;;20.20;;
16153;SDS011;8182;55.648;13.208;2024-02-26T07:43:54;27.77;;;19.83;;
16153;SDS011;8182;55.648;13.208;2024-02-26T07:46:23;29.00;;;20.73;;
16153;SDS011;8182;55.648;13.208;2024-02-26T07:48:49;30.43;;;20.90;;
16153;SDS011;8182;55.648;13.208;2024-02-26T07:51:17;29.97;;;21.90;;
16153;SDS011;8182;55.648;13.208;2024-02-26T07:53:44;30.57;;;21.70;;
16153;SDS011;8182;55.648;13.208;2024-02-26T07:56:11;31.30;;;22.00;;
16153;SDS011;8182;55.648;13.208;2024-02-26T07:58:38;35.53;;;22.90;;
16153;SDS011;8182;55.648;13.208;2024-02-26T08:01:05;29.30;;;21.57;;
16153;SDS011;8182;55.648;13.208;2024-02-26T08:03:33;34.10;;;23.20;;
16153;SDS011;8182;55.648;13.208;2024-02-26T08:06:00;31.67;;;22.27;;
16153;SDS011;8182;55.648;13.208;2024-02-26T08:08:27;32.83;;;23.10;;
16153;SDS011;8182;55.648;13.208;2024-02-26T08:10:54;35.90;;;23.87;;
16153;SDS011;8182;55.648;13.208;2024-02-26T08:13:21;33.83;;;23.30;;
16153;SDS011;8182;55.648;13.208;2024-02-26T08:15:51;37.50;;;25.33;;
16153;SDS011;8182;55.648;13.208;2024-02-26T08:18:18;35.57;;;25.57;;
16153;SDS011;8182;55.648;13.208;2024-02-26T08:20:48;34.20;;;24.17;;
16153;SDS011;8182;55.648;13.208;2024-02-26T08:23:15;33.33;;;24.90;;
16153;SDS011;8182;55.648;13.208;2024-02-26T08:25:42;31.87;;;24.97;;
16153;SDS011;8182;55.648;13.208;2024-02-26T08:28:11;33.53;;;24.53;;
16153;SDS011;8182;55.648;13.208;2024-02-26T08:30:45;33.20;;;24.13;;
16153;SDS011;8182;55.648;13.208;2024-02-26T08:33:13;31.43;;;23.63;;
16153;SDS011;8182;55.648;13.208;2024-02-26T08:35:40;31.53;;;23.03;;
16153;SDS011;8182;55.648;13.208;2024-02-26T08:38:10;32.73;;;23.93;;
16153;SDS011;8182;55.648;13.208;2024-02-26T08:40:37;34.93;;;26.50;;
16153;SDS011;8182;55.648;13.208;2024-02-26T08:43:03;34.97;;;25.60;;
16153;SDS011;8182;55.648;13.208;2024-02-26T08:45:30;31.93;;;24.47;;
16153;SDS011;8182;55.648;13.208;2024-02-26T08:47:57;32.37;;;23.93;;
16153;SDS011;8182;55.648;13.208;2024-02-26T08:50:24;31.53;;;24.07;;
16153;SDS011;8182;55.648;13.208;2024-02-26T08:52:54;33.07;;;24.17;;
16153;SDS011;8182;55.648;13.208;2024-02-26T08:55:27;35.10;;;25.20;;
16153;SDS011;8182;55.648;13.208;2024-02-26T08:57:54;30.73;;;23.73;;
16153;SDS011;8182;55.648;13.208;2024-02-26T09:00:21;28.13;;;21.77;;
16153;SDS011;8182;55.648;13.208;2024-02-26T09:02:48;26.87;;;20.87;;
16153;SDS011;8182;55.648;13.208;2024-02-26T09:05:15;24.73;;;20.07;;
16153;SDS011;8182;55.648;13.208;2024-02-26T09:07:44;23.50;;;19.00;;
16153;SDS011;8182;55.648;13.208;2024-02-26T09:10:11;28.73;;;22.17;;
16153;SDS011;8182;55.648;13.208;2024-02-26T09:12:46;27.00;;;21.97;;
16153;SDS011;8182;55.648;13.208;2024-02-26T09:15:13;28.40;;;22.13;;
16153;SDS011;8182;55.648;13.208;2024-02-26T09:17:40;26.27;;;21.07;;
16153;SDS011;8182;55.648;13.208;2024-02-26T09:20:08;27.50;;;21.27;;
16153;SDS011;8182;55.648;13.208;2024-02-26T09:22:35;23.30;;;19.77;;
16153;SDS011;8182;55.648;13.208;2024-02-26T09:25:04;26.07;;;20.17;;
16153;SDS011;8182;55.648;13.208;2024-02-26T09:27:31;24.30;;;19.10;;
16153;SDS011;8182;55.648;13.208;2024-02-26T09:30:02;23.40;;;19.20;;
16153;SDS011;8182;55.648;13.208;2024-02-26T09:32:30;25.20;;;20.10;;
16153;SDS011;8182;55.648;13.208;2024-02-26T09:34:57;24.57;;;19.13;;
16153;SDS011;8182;55.648;13.208;2024-02-26T09:37:24;23.67;;;18.90;;
16153;SDS011;8182;55.648;13.208;2024-02-26T09:39:51;22.60;;;18.17;;
16153;SDS011;8182;55.648;13.208;2024-02-26T09:42:19;22.73;;;19.07;;
16153;SDS011;8182;55.648;13.208;2024-02-26T09:44:45;24.20;;;18.80;;
16153;SDS011;8182;55.648;13.208;2024-02-26T09:47:17;24.50;;;18.57;;
16153;SDS011;8182;55.648;13.208;2024-02-26T09:49:45;22.97;;;18.37;;
16153;SDS011;8182;55.648;13.208;2024-02-26T09:52:13;24.13;;;18.13;;
16153;SDS011;8182;55.648;13.208;2024-02-26T09:54:45;21.30;;;16.90;;
16153;SDS011;8182;55.648;13.208;2024-02-26T09:57:13;22.00;;;18.30;;
16153;SDS011;8182;55.648;13.208;2024-02-26T09:59:45;21.60;;;17.37;;
16153;SDS011;8182;55.648;13.208;2024-02-26T10:02:16;21.67;;;17.33;;
16153;SDS011;8182;55.648;13.208;2024-02-26T10:04:45;21.17;;;17.47;;
16153;SDS011;8182;55.648;13.208;2024-02-26T10:07:16;21.87;;;17.67;;
16153;SDS011;8182;55.648;13.208;2024-02-26T10:09:43;23.00;;;18.07;;
16153;SDS011;8182;55.648;13.208;2024-02-26T10:12:10;19.87;;;16.33;;
16153;SDS011;8182;55.648;13.208;2024-02-26T10:14:40;22.23;;;18.07;;
16153;SDS011;8182;55.648;13.208;2024-02-26T10:17:09;20.03;;;15.97;;
16153;SDS011;8182;55.648;13.208;2024-02-26T10:19:41;22.03;;;16.67;;
16153;SDS011;8182;55.648;13.208;2024-02-26T10:22:14;19.60;;;15.57;;
16153;SDS011;8182;55.648;13.208;2024-02-26T10:24:40;20.63;;;15.43;;
16153;SDS011;8182;55.648;13.208;2024-02-26T10:27:10;15.27;;;13.47;;
16153;SDS011;8182;55.648;13.208;2024-02-26T10:29:37;16.00;;;13.50;;
16153;SDS011;8182;55.648;13.208;2024-02-26T10:32:04;14.50;;;11.57;;
16153;SDS011;8182;55.648;13.208;2024-02-26T10:34:32;15.70;;;13.93;;
16153;SDS011;8182;55.648;13.208;2024-02-26T10:37:02;16.47;;;14.13;;
16153;SDS011;8182;55.648;13.208;2024-02-26T10:39:29;16.80;;;13.73;;
16153;SDS011;8182;55.648;13.208;2024-02-26T10:41:56;18.60;;;13.77;;
16153;SDS011;8182;55.648;13.208;2024-02-26T10:44:25;16.80;;;12.20;;
16153;SDS011;8182;55.648;13.208;2024-02-26T10:46:52;13.97;;;11.53;;
16153;SDS011;8182;55.648;13.208;2024-02-26T10:49:19;16.90;;;12.60;;
16153;SDS011;8182;55.648;13.208;2024-02-26T10:51:50;13.30;;;10.90;;
16153;SDS011;8182;55.648;13.208;2024-02-26T10:54:24;11.13;;;9.93;;
16153;SDS011;8182;55.648;13.208;2024-02-26T10:56:55;9.33;;;8.30;;
16153;SDS011;8182;55.648;13.208;2024-02-26T10:59:23;14.83;;;11.90;;
16153;SDS011;8182;55.648;13.208;2024-02-26T11:01:53;12.53;;;11.20;;
16153;SDS011;8182;55.648;13.208;2024-02-26T11:04:21;12.97;;;11.07;;
16153;SDS011;8182;55.648;13.208;2024-02-26T11:06:50;12.73;;;11.23;;
16153;SDS011;8182;55.648;13.208;2024-02-26T11:09:17;12.73;;;11.33;;
16153;SDS011;8182;55.648;13.208;2024-02-26T11:11:49;13.87;;;11.40;;
16153;SDS011;8182;55.648;13.208;2024-02-26T11:14:19;14.83;;;11.50;;
16153;SDS011;8182;55.648;13.208;2024-02-26T11:16:50;11.33;;;10.13;;
16153;SDS011;8182;55.648;13.208;2024-02-26T11:19:17;13.90;;;11.30;;
16153;SDS011;8182;55.648;13.208;2024-02-26T11:21:45;13.23;;;11.60;;
16153;SDS011;8182;55.648;13.208;2024-02-26T11:24:14;14.40;;;11.17;;
16153;SDS011;8182;55.648;13.208;2024-02-26T11:26:44;13.13;;;11.33;;
16153;SDS011;8182;55.648;13.208;2024-02-26T11:29:17;13.10;;;11.43;;
16153;SDS011;8182;55.648;13.208;2024-02-26T11:31:47;11.73;;;10.57;;
16153;SDS011;8182;55.648;13.208;2024-02-26T11:34:15;11.77;;;10.00;;
16153;SDS011;8182;55.648;13.208;2024-02-26T11:36:43;11.93;;;9.93;;
16153;SDS011;8182;55.648;13.208;2024-02-26T11:39:11;11.30;;;9.67;;
16153;SDS011;8182;55.648;13.208;2024-02-26T11:41:44;9.93;;;8.93;;
16153;SDS011;8182;55.648;13.208;2024-02-26T11:44:11;9.70;;;8.40;;
16153;SDS011;8182;55.648;13.208;2024-02-26T11:46:40;9.50;;;8.50;;
16153;SDS011;8182;55.648;13.208;2024-02-26T11:51:59;9.50;;;8.50;;
16153;SDS011;8182;55.648;13.208;2024-02-26T11:54:38;10.00;;;8.20;;
16153;SDS011;8182;55.648;13.208;2024-02-26T11:57:19;9.50;;;7.80;;
16153;SDS011;8182;55.648;13.208;2024-02-26T11:59:47;9.97;;;7.33;;
16153;SDS011;8182;55.648;13.208;2024-02-26T12:05:11;8.60;;;6.60;;
16153;SDS011;8182;55.648;13.208;2024-02-26T12:07:44;8.77;;;7.10;;
16153;SDS011;8182;55.648;13.208;2024-02-26T12:10:13;9.33;;;6.30;;
16153;SDS011;8182;55.648;13.208;2024-02-26T12:13:00;7.47;;;5.97;;
16153;SDS011;8182;55.648;13.208;2024-02-26T12:15:31;7.07;;;6.37;;
16153;SDS011;8182;55.648;13.208;2024-02-26T12:18:01;7.50;;;6.20;;
16153;SDS011;8182;55.648;13.208;2024-02-26T12:20:29;7.00;;;6.40;;
16153;SDS011;8182;55.648;13.208;2024-02-26T12:22:56;6.93;;;6.23;;
16153;SDS011;8182;55.648;13.208;2024-02-26T12:25:24;8.27;;;6.73;;
16153;SDS011;8182;55.648;13.208;2024-02-26T12:27:52;7.33;;;6.63;;
16153;SDS011;8182;55.648;13.208;2024-02-26T12:30:19;7.10;;;6.00;;
16153;SDS011;8182;55.648;13.208;2024-02-26T12:32:46;7.57;;;6.73;;
16153;SDS011;8182;55.648;13.208;2024-02-26T12:35:15;9.17;;;7.07;;
16153;SDS011;8182;55.648;13.208;2024-02-26T12:37:43;8.03;;;7.03;;
16153;SDS011;8182;55.648;13.208;2024-02-26T12:40:11;8.10;;;7.30;;
16153;SDS011;8182;55.648;13.208;2024-02-26T12:42:41;9.00;;;8.10;;
16153;SDS011;8182;55.648;13.208;2024-02-26T12:45:12;9.17;;;7.73;;
16153;SDS011;8182;55.648;13.208;2024-02-26T12:47:41;10.70;;;8.60;;
16153;SDS011;8182;55.648;13.208;2024-02-26T12:50:16;8.83;;;7.77;;
16153;SDS011;8182;55.648;13.208;2024-02-26T12:52:44;9.73;;;8.67;;
16153;SDS011;8182;55.648;13.208;2024-02-26T12:55:16;10.07;;;8.30;;
16153;SDS011;8182;55.648;13.208;2024-02-26T12:57:44;9.87;;;8.57;;
16153;SDS011;8182;55.648;13.208;2024-02-26T13:00:15;9.50;;;8.50;;
16153;SDS011;8182;55.648;13.208;2024-02-26T13:02:44;10.47;;;9.47;;
16153;SDS011;8182;55.648;13.208;2024-02-26T13:05:12;11.00;;;9.37;;
16153;SDS011;8182;55.648;13.208;2024-02-26T13:07:43;10.70;;;9.63;;
16153;SDS011;8182;55.648;13.208;2024-02-26T13:10:13;11.93;;;10.23;;
16153;SDS011;8182;55.648;13.208;2024-02-26T13:12:46;10.77;;;8.73;;
16153;SDS011;8182;55.648;13.208;2024-02-26T13:15:15;8.00;;;7.20;;
16153;SDS011;8182;55.648;13.208;2024-02-26T13:17:43;7.53;;;5.90;;
16153;SDS011;8182;55.648;13.208;2024-02-26T13:20:10;6.40;;;5.80;;
16153;SDS011;8182;55.648;13.208;2024-02-26T13:22:41;7.90;;;7.10;;
16153;SDS011;8182;55.648;13.208;2024-02-26T13:25:11;9.03;;;7.63;;
16153;SDS011;8182;55.648;13.208;2024-02-26T13:27:46;8.70;;;6.93;;
16153;SDS011;8182;55.648;13.208;2024-02-26T13:30:13;8.73;;;6.97;;
16153;SDS011;8182;55.648;13.208;2024-02-26T13:32:40;9.40;;;7.77;;
16153;SDS011;8182;55.648;13.208;2024-02-26T13:35:08;8.60;;;7.67;;
16153;SDS011;8182;55.648;13.208;2024-02-26T13:37:36;8.67;;;7.80;;
16153;SDS011;8182;55.648;13.208;2024-02-26T13:40:06;8.30;;;7.50;;
16153;SDS011;8182;55.648;13.208;2024-02-26T13:42:34;8.87;;;7.63;;
16153;SDS011;8182;55.648;13.208;2024-02-26T13:45:01;8.10;;;7.30;;
16153;SDS011;8182;55.648;13.208;2024-02-26T13:47:31;8.50;;;6.93;;
16153;SDS011;8182;55.648;13.208;2024-02-26T13:49:58;8.20;;;6.73;;
16153;SDS011;8182;55.648;13.208;2024-02-26T13:52:25;8.87;;;6.27;;
16153;SDS011;8182;55.648;13.208;2024-02-26T13:54:52;6.73;;;5.73;;
16153;SDS011;8182;55.648;13.208;2024-02-26T13:57:20;6.13;;;5.53;;
16153;SDS011;8182;55.648;13.208;2024-02-26T13:59:48;6.23;;;5.63;;
16153;SDS011;8182;55.648;13.208;2024-02-26T14:02:15;7.90;;;6.57;;
16153;SDS011;8182;55.648;13.208;2024-02-26T14:04:43;6.80;;;6.10;;
16153;SDS011;8182;55.648;13.208;2024-02-26T14:07:09;6.77;;;6.03;;
16153;SDS011;8182;55.648;13.208;2024-02-26T14:09:45;6.30;;;5.70;;
16153;SDS011;8182;55.648;13.208;2024-02-26T14:12:11;5.10;;;4.60;;
16153;SDS011;8182;55.648;13.208;2024-02-26T14:14:42;4.50;;;4.10;;
16153;SDS011;8182;55.648;13.208;2024-02-26T14:17:11;5.03;;;4.03;;
16153;SDS011;8182;55.648;13.208;2024-02-26T14:19:38;3.50;;;3.20;;
16153;SDS011;8182;55.648;13.208;2024-02-26T14:22:09;3.73;;;3.43;;
16153;SDS011;8182;55.648;13.208;2024-02-26T14:24:39;3.40;;;3.10;;
16153;SDS011;8182;55.648;13.208;2024-02-26T14:27:07;3.43;;;3.13;;
16153;SDS011;8182;55.648;13.208;2024-02-26T14:29:35;3.70;;;3.00;;
16153;SDS011;8182;55.648;13.208;2024-02-26T14:32:03;3.17;;;2.87;;
16153;SDS011;8182;55.648;13.208;2024-02-26T14:34:31;2.97;;;2.70;;
16153;SDS011;8182;55.648;13.208;2024-02-26T14:36:57;2.90;;;2.70;;
16153;SDS011;8182;55.648;13.208;2024-02-26T14:39:25;4.00;;;2.77;;